Time;durP1;ratioP1;P1;durP2;ratioP2;P2;SDS_P1;SDS_P2;PMS_P1;PMS_P2;Temp;Humidity;BMP_temperature;BMP_pressure;BME280_temperature;BME280_humidity;BME280_pressure;Samples;Min_cycle;Max_cycle;Signal;HPM_P1;HPM_P2
2022/08/08 00:00:11;;;;;;;3.88;1.42;;;14.10;99.90;;;;;;5092456;28;20055;-90
2022/08/08 00:02:58;;;;;;;3.78;1.50;;;14.10;99.90;;;;;;5091055;27;20051;-89
2022/08/08 00:05:48;;;;;;;2.35;1.30;;;14.10;99.90;;;;;;5092437;27;20059;-91
2022/08/08 00:08:32;;;;;;;4.00;1.45;;;14.00;99.90;;;;;;5092795;28;20488;-91
2022/08/08 00:11:01;;;;;;;2.05;1.45;;;14.00;99.90;;;;;;5090367;28;20073;-91
2022/08/08 00:13:54;;;;;;;6.40;1.85;;;14.00;99.90;;;;;;5092811;28;20043;-94
2022/08/08 00:16:28;;;;;;;2.50;1.40;;;14.00;99.90;;;;;;5092213;28;20062;-93
2022/08/08 00:19:05;;;;;;;4.03;1.80;;;14.00;99.90;;;;;;5091632;28;20369;-94
2022/08/08 00:21:35;;;;;;;7.50;1.88;;;14.00;99.90;;;;;;5092469;28;20054;-93
2022/08/08 00:24:10;;;;;;;3.30;1.73;;;14.00;99.90;;;;;;5091103;28;20039;-92
2022/08/08 00:26:41;;;;;;;6.22;1.65;;;14.00;99.90;;;;;;5092448;28;20552;-92
2022/08/08 00:29:26;;;;;;;4.55;1.42;;;15.00;99.90;;;;;;5091454;28;20083;-92
2022/08/08 00:32:00;;;;;;;5.15;1.92;;;13.90;99.90;;;;;;5090951;28;20059;-92
2022/08/08 00:37:50;;;;;;;4.55;1.52;;;13.90;99.90;;;;;;5107901;28;20054;-92
2022/08/08 00:40:28;;;;;;;4.35;1.90;;;13.90;99.90;;;;;;5091102;28;20086;-92
2022/08/08 00:43:18;;;;;;;7.05;2.15;;;13.90;99.90;;;;;;5093316;28;20484;-93
2022/08/08 00:45:56;;;;;;;2.35;1.30;;;13.90;99.90;;;;;;5091082;28;20042;-93
2022/08/08 00:48:37;;;;;;;3.80;1.23;;;13.90;99.90;;;;;;5092579;28;20420;-92
2022/08/08 00:51:28;;;;;;;3.38;2.10;;;13.90;99.90;;;;;;5092400;28;20043;-92
2022/08/08 00:54:20;;;;;;;3.13;1.73;;;13.90;99.90;;;;;;5091647;28;20077;-92
2022/08/08 00:56:56;;;;;;;9.27;1.65;;;13.90;99.90;;;;;;5047769;28;20063;-91
2022/08/08 01:00:00;;;;;;;3.28;1.50;;;13.80;99.90;;;;;;5090997;28;20092;-90
2022/08/08 01:03:24;;;;;;;2.70;1.80;;;13.80;99.90;;;;;;5089940;28;20112;-90
2022/08/08 01:05:58;;;;;;;3.80;1.63;;;13.80;99.90;;;;;;4989501;28;20136;-90
2022/08/08 01:08:54;;;;;;;8.18;2.00;;;13.70;99.90;;;;;;4990685;28;20056;-90
2022/08/08 01:11:48;;;;;;;3.72;2.15;;;13.70;99.90;;;;;;5080008;28;20138;-90
2022/08/08 01:14:54;;;;;;;6.80;1.67;;;13.70;99.90;;;;;;5107527;28;20130;-90
2022/08/08 01:17:37;;;;;;;4.75;1.88;;;13.70;99.90;;;;;;5091699;28;20050;-90
2022/08/08 01:20:22;;;;;;;;;;;13.60;99.90;;;;;;5090606;28;20119;-90
2022/08/08 01:23:24;;;;;;;4.15;1.80;;;13.60;99.90;;;;;;5091754;27;19926;-90
2022/08/08 01:26:08;;;;;;;5.20;1.83;;;13.60;99.90;;;;;;5095508;27;20373;-90
2022/08/08 01:29:11;;;;;;;9.02;1.80;;;13.60;99.90;;;;;;5093590;27;20091;-90
2022/08/08 01:32:17;;;;;;;4.90;2.08;;;13.60;99.90;;;;;;5093265;27;20050;-91
2022/08/08 01:35:20;;;;;;;2.72;1.60;;;13.60;99.90;;;;;;5095119;27;20077;-92
2022/08/08 01:37:55;;;;;;;4.83;1.77;;;13.50;99.90;;;;;;5094443;27;20478;-92
2022/08/08 01:40:50;;;;;;;2.55;1.65;;;13.50;99.90;;;;;;5093887;27;20043;-93
2022/08/08 01:43:31;;;;;;;5.25;2.00;;;13.50;99.90;;;;;;5095627;27;20047;-92
2022/08/08 01:45:56;;;;;;;5.78;1.85;;;13.40;99.90;;;;;;5094319;27;20075;-92
2022/08/08 01:48:44;;;;;;;5.63;2.70;;;13.50;99.90;;;;;;5094975;27;20459;-91
2022/08/08 01:51:55;;;;;;;4.85;1.55;;;13.50;99.90;;;;;;5095467;27;20134;-93
2022/08/08 01:54:42;;;;;;;3.08;2.08;;;13.60;99.90;;;;;;5093743;27;20050;-92
2022/08/08 01:57:46;;;;;;;2.75;1.90;;;13.60;99.90;;;;;;5094623;27;20047;-91
2022/08/08 02:00:47;;;;;;;4.90;1.88;;;13.60;99.90;;;;;;5091303;28;20054;-91
2022/08/08 02:03:45;;;;;;;3.75;1.98;;;13.60;99.90;;;;;;5089659;28;20055;-90
2022/08/08 02:06:24;;;;;;;3.88;1.92;;;13.50;99.90;;;;;;5089894;28;20399;-91
2022/08/08 02:08:59;;;;;;;4.28;1.65;;;13.50;99.90;;;;;;5091463;28;20047;-92
2022/08/08 02:11:38;;;;;;;6.25;2.40;;;13.60;99.90;;;;;;5089808;28;20052;-91
2022/08/08 02:14:38;;;;;;;5.45;2.72;;;13.50;99.90;;;;;;5091137;28;20116;-92
2022/08/08 02:17:23;;;;;;;7.00;2.63;;;13.60;99.90;;;;;;5092041;28;20457;-92
2022/08/08 02:19:54;;;;;;;8.00;2.70;;;13.80;99.90;;;;;;5089654;28;20115;-93
2022/08/08 02:22:35;;;;;;;8.02;3.15;;;13.90;99.90;;;;;;5091236;28;20107;-91
2022/08/08 02:25:19;;;;;;;8.02;2.63;;;13.90;99.90;;;;;;5091106;28;20394;-91
2022/08/08 02:28:09;;;;;;;6.57;2.63;;;14.00;99.90;;;;;;5089536;28;20035;-92
2022/08/08 02:31:03;;;;;;;4.80;2.03;;;14.10;99.90;;;;;;5107921;28;20104;-92
2022/08/08 02:33:55;;;;;;;3.83;2.60;;;14.20;99.90;;;;;;5089990;28;20159;-91
2022/08/08 02:36:42;;;;;;;6.15;2.17;;;14.20;99.90;;;;;;5088853;28;20078;-90
2022/08/08 02:39:29;;;;;;;4.88;2.53;;;14.30;99.90;;;;;;5090546;28;20063;-90
2022/08/08 02:42:28;;;;;;;6.13;2.33;;;14.40;99.90;;;;;;5106350;28;20050;-90
2022/08/08 02:44:56;;;;;;;11.55;2.65;;;14.40;99.90;;;;;;5088816;28;20109;-90
2022/08/08 02:47:56;;;;;;;10.18;2.95;;;14.50;99.90;;;;;;5106867;28;20075;-90
2022/08/08 02:50:43;;;;;;;9.75;2.95;;;14.50;99.90;;;;;;5088604;28;20126;-90
2022/08/08 02:53:12;;;;;;;9.48;2.65;;;14.60;99.90;;;;;;5088836;28;20051;-91
2022/08/08 02:56:00;;;;;;;13.05;3.28;;;14.60;99.90;;;;;;5090437;28;20611;-90
2022/08/08 02:59:03;;;;;;;9.88;3.40;;;14.70;99.90;;;;;;5089207;28;20154;-90
2022/08/08 03:01:32;;;;;;;6.15;2.83;;;14.70;99.90;;;;;;5089383;28;20351;-90
2022/08/08 03:04:38;;;;;;;7.50;2.72;;;14.80;99.90;;;;;;5089881;28;20134;-90
2022/08/08 03:07:23;;;;;;;8.27;3.92;;;14.80;99.90;;;;;;5089286;28;20054;-89
2022/08/08 03:10:17;;;;;;;9.15;2.92;;;14.20;99.90;;;;;;5089666;28;20047;-91
2022/08/08 03:13:14;;;;;;;5.40;2.55;;;14.90;99.90;;;;;;5048226;28;20288;-91
2022/08/08 03:16:18;;;;;;;4.80;2.45;;;15.00;99.90;;;;;;5088804;28;20055;-91
2022/08/08 03:18:52;;;;;;;;;;;15.00;99.90;;;;;;5073950;28;20051;-90
2022/08/08 03:21:18;;;;;;;3.60;2.40;;;15.00;99.90;;;;;;5090089;28;19920;-91
2022/08/08 03:23:44;;;;;;;9.63;2.88;;;15.00;99.90;;;;;;5088180;28;20046;-91
2022/08/08 03:26:11;;;;;;;4.65;2.58;;;15.10;99.90;;;;;;5073311;28;20055;-91
2022/08/08 03:28:48;;;;;;;7.47;2.33;;;15.10;99.90;;;;;;5055546;28;20043;-90
2022/08/08 03:34:05;;;;;;;5.63;2.53;;;15.10;99.90;;;;;;5092900;28;20043;-91
2022/08/08 03:36:30;;;;;;;4.93;2.33;;;15.10;99.90;;;;;;5055102;28;20040;-90
2022/08/08 03:38:56;;;;;;;3.40;2.55;;;15.10;99.90;;;;;;5056664;28;20398;-91
2022/08/08 03:41:31;;;;;;;8.60;2.28;;;15.50;99.90;;;;;;5087906;28;20040;-91
2022/08/08 03:43:57;;;;;;;3.75;2.50;;;15.20;99.90;;;;;;5089837;28;20043;-89
2022/08/08 03:46:23;;;;;;;5.43;2.60;;;16.00;99.90;;;;;;5072013;28;20123;-91
2022/08/08 03:48:57;;;;;;;6.63;2.40;;;15.20;99.90;;;;;;5088459;28;20035;-90
2022/08/08 03:51:23;;;;;;;6.75;2.70;;;15.20;99.90;;;;;;5073369;28;20039;-88
2022/08/08 03:53:53;;;;;;;5.32;3.38;;;15.20;99.90;;;;;;5087124;28;20512;-89
2022/08/08 03:56:20;;;;;;;9.85;2.70;;;15.10;99.90;;;;;;5089033;28;20048;-92
2022/08/08 03:58:51;;;;;;;5.72;2.60;;;15.80;99.90;;;;;;5070824;28;20047;-92
2022/08/08 04:01:17;;;;;;;7.38;3.00;;;15.10;99.90;;;;;;5088669;28;20101;-92
2022/08/08 04:03:48;;;;;;;5.22;2.60;;;15.10;99.90;;;;;;5072331;28;20239;-91
2022/08/08 04:06:14;;;;;;;3.88;2.20;;;15.10;99.90;;;;;;5087343;28;20044;-91
2022/08/08 04:08:41;;;;;;;5.88;2.88;;;15.40;99.90;;;;;;5078957;28;20046;-92
2022/08/08 04:11:08;;;;;;;10.25;2.72;;;15.40;99.90;;;;;;5063097;28;20531;-91
2022/08/08 04:13:34;;;;;;;8.35;2.78;;;15.10;99.90;;;;;;5097163;28;20145;-90
2022/08/08 04:16:00;;;;;;;3.28;2.47;;;16.10;99.90;;;;;;5096573;28;20075;-94
2022/08/08 04:18:25;;;;;;;4.50;2.58;;;15.10;99.90;;;;;;5075121;28;20041;-93
2022/08/08 04:20:51;;;;;;;6.82;2.78;;;15.10;99.90;;;;;;5079992;28;20082;-96
2022/08/08 04:23:17;;;;;;;6.43;2.92;;;15.70;99.90;;;;;;5092620;28;20082;-95
2022/08/08 04:25:43;;;;;;;8.43;3.00;;;15.10;99.90;;;;;;5073720;28;20043;-94
2022/08/08 04:28:09;;;;;;;7.72;3.28;;;15.10;99.90;;;;;;5088125;28;20043;-91
2022/08/08 04:30:35;;;;;;;8.55;2.90;;;15.10;99.90;;;;;;5088761;28;20071;-90
2022/08/08 04:33:01;;;;;;;4.47;3.00;;;15.20;99.90;;;;;;5070091;28;20447;-90
2022/08/08 04:35:27;;;;;;;7.65;3.17;;;15.20;99.90;;;;;;5071626;28;20073;-90
2022/08/08 04:37:53;;;;;;;11.20;2.90;;;15.20;99.90;;;;;;5088359;28;20051;-91
2022/08/08 04:40:20;;;;;;;6.35;3.20;;;15.20;99.90;;;;;;5087539;28;20039;-91
2022/08/08 04:42:47;;;;;;;6.40;2.25;;;15.20;99.90;;;;;;5089030;28;20052;-90
2022/08/08 04:45:13;;;;;;;3.33;2.50;;;15.20;99.90;;;;;;5069770;28;20044;-89
2022/08/08 04:47:39;;;;;;;6.20;3.25;;;15.20;99.90;;;;;;5088594;28;20042;-89
2022/08/08 04:50:06;;;;;;;7.60;3.00;;;15.20;99.90;;;;;;5102900;28;20478;-90
2022/08/08 04:52:32;;;;;;;9.27;3.40;;;15.20;99.90;;;;;;5054634;28;20470;-88
2022/08/08 04:54:58;;;;;;;9.43;2.78;;;15.20;99.90;;;;;;5070516;28;20052;-89
2022/08/08 04:57:23;;;;;;;7.10;3.38;;;15.20;99.90;;;;;;5053488;28;20135;-88
2022/08/08 04:59:49;;;;;;;7.40;2.88;;;15.30;99.90;;;;;;5108188;28;20066;-89
2022/08/08 05:02:15;;;;;;;9.48;3.47;;;15.30;99.90;;;;;;5073270;28;20079;-88
2022/08/08 05:04:41;;;;;;;9.57;3.30;;;15.30;99.90;;;;;;5091499;28;20097;-89
2022/08/08 05:07:07;;;;;;;7.75;3.20;;;15.30;99.90;;;;;;5090088;28;20046;-88
2022/08/08 05:09:34;;;;;;;7.60;3.20;;;15.30;99.90;;;;;;5091372;28;20047;-86
2022/08/08 05:12:00;;;;;;;8.82;3.42;;;15.40;99.90;;;;;;5107987;28;20140;-88
2022/08/08 05:14:26;;;;;;;5.82;3.03;;;15.40;99.90;;;;;;5090185;28;20089;-88
2022/08/08 05:16:52;;;;;;;7.53;3.03;;;15.40;99.90;;;;;;5091578;28;20074;-88
2022/08/08 05:19:18;;;;;;;5.15;3.65;;;15.50;99.90;;;;;;5072782;28;20470;-88
2022/08/08 05:21:44;;;;;;;7.95;2.72;;;15.50;99.90;;;;;;5091162;28;20509;-91
2022/08/08 05:24:10;;;;;;;5.07;2.67;;;16.50;99.90;;;;;;5089428;28;20043;-89
2022/08/08 05:26:37;;;;;;;6.88;2.70;;;15.70;99.90;;;;;;5092002;28;20043;-86
2022/08/08 05:29:07;;;;;;;14.15;2.78;;;15.70;99.90;;;;;;5090094;28;20097;-85
2022/08/08 05:31:34;;;;;;;6.03;2.75;;;15.70;99.90;;;;;;5107959;28;20531;-84
2022/08/08 05:34:02;;;;;;;3.50;2.60;;;15.80;99.90;;;;;;5073991;28;20074;-85
2022/08/08 05:36:30;;;;;;;6.55;3.05;;;15.80;99.90;;;;;;5106574;28;20044;-85
2022/08/08 05:39:00;;;;;;;8.35;3.03;;;15.80;99.90;;;;;;5090588;28;20506;-85
2022/08/08 05:41:26;;;;;;;5.85;2.72;;;15.80;99.90;;;;;;5106062;28;20050;-85
2022/08/08 05:44:02;;;;;;;9.25;3.17;;;15.90;99.90;;;;;;5107710;28;20048;-84
2022/08/08 05:46:28;;;;;;;7.18;3.08;;;15.90;99.90;;;;;;5106951;28;20039;-85
2022/08/08 05:48:55;;;;;;;6.85;2.70;;;17.10;99.90;;;;;;5106577;28;20054;-84
2022/08/08 05:51:21;;;;;;;6.28;2.42;;;16.00;99.90;;;;;;5107695;28;20130;-85
2022/08/08 05:53:47;;;;;;;6.00;2.17;;;16.00;99.90;;;;;;5071898;28;20117;-86
2022/08/08 05:56:15;;;;;;;6.45;2.67;;;16.10;99.90;;;;;;5090673;28;20178;-87
2022/08/08 05:58:43;;;;;;;13.75;3.00;;;16.30;99.90;;;;;;5055654;28;20046;-87
2022/08/08 06:01:10;;;;;;;6.85;2.03;;;16.20;99.90;;;;;;5106736;28;20055;-83
2022/08/08 06:03:42;;;;;;;6.85;2.78;;;16.20;99.90;;;;;;5106664;28;20521;-85
2022/08/08 06:06:08;;;;;;;8.10;2.38;;;16.20;99.90;;;;;;5106178;28;20387;-84
2022/08/08 06:08:40;;;;;;;7.78;2.38;;;16.30;99.90;;;;;;5107087;28;20104;-85
2022/08/08 06:11:06;;;;;;;6.57;2.70;;;16.40;99.90;;;;;;5105765;28;20188;-83
2022/08/08 06:13:32;;;;;;;10.13;2.45;;;16.40;99.90;;;;;;5108833;28;20044;-81
2022/08/08 06:15:57;;;;;;;6.63;2.83;;;16.50;99.90;;;;;;5105864;28;20134;-82
2022/08/08 06:18:25;;;;;;;5.35;2.28;;;16.60;99.90;;;;;;5107808;28;20106;-85
2022/08/08 06:20:54;;;;;;;5.60;2.50;;;16.70;99.90;;;;;;5106648;28;20127;-85
2022/08/08 06:23:20;;;;;;;7.90;2.42;;;16.80;99.90;;;;;;5105393;28;20048;-85
2022/08/08 06:25:58;;;;;;;5.63;2.35;;;16.90;99.90;;;;;;5090353;28;20051;-85
2022/08/08 06:28:52;;;;;;;4.40;2.38;;;16.90;99.90;;;;;;5104758;28;20116;-85
2022/08/08 06:31:22;;;;;;;5.30;2.00;;;17.00;99.90;;;;;;5079399;28;20420;-85
2022/08/08 06:34:13;;;;;;;11.95;2.63;;;17.10;99.90;;;;;;5106362;28;20054;-85
2022/08/08 06:36:42;;;;;;;5.95;2.38;;;17.30;99.90;;;;;;5095211;28;20091;-85
2022/08/08 06:39:13;;;;;;;6.95;1.88;;;17.40;99.90;;;;;;5089293;28;20091;-86
2022/08/08 06:41:58;;;;;;;7.65;2.65;;;17.50;99.90;;;;;;5088556;28;20043;-86
2022/08/08 06:44:25;;;;;;;7.45;3.35;;;17.60;99.90;;;;;;5105519;28;20456;-86
2022/08/08 06:46:52;;;;;;;4.80;2.00;;;17.60;99.90;;;;;;5106399;28;20528;-86
2022/08/08 06:49:18;;;;;;;3.78;2.10;;;17.70;99.90;;;;;;5104442;28;20044;-85
2022/08/08 06:51:44;;;;;;;6.63;2.30;;;17.70;99.90;;;;;;5089962;28;20048;-86
2022/08/08 06:54:11;;;;;;;4.22;2.13;;;17.70;99.90;;;;;;5087400;28;20383;-86
2022/08/08 06:56:38;;;;;;;7.85;1.88;;;17.80;99.90;;;;;;5106778;28;20204;-86
2022/08/08 06:59:04;;;;;;;8.02;2.45;;;17.80;99.90;;;;;;5105114;27;20096;-86
2022/08/08 07:01:36;;;;;;;5.45;2.35;;;17.90;99.90;;;;;;5074440;27;20051;-86
2022/08/08 07:04:29;;;;;;;5.00;1.90;;;17.90;99.90;;;;;;5093011;27;20066;-86
2022/08/08 07:06:56;;;;;;;;;;;18.00;99.90;;;;;;5103090;27;20065;-86
2022/08/08 07:09:33;;;;;;;10.00;1.80;;;18.10;99.90;;;;;;5092400;27;19941;-86
2022/08/08 07:12:00;;;;;;;7.30;1.70;;;18.20;99.90;;;;;;5108695;27;20043;-86
2022/08/08 07:14:51;;;;;;;6.82;1.98;;;18.20;99.90;;;;;;5091493;27;20058;-86
2022/08/08 07:17:23;;;;;;;7.93;1.55;;;18.30;99.90;;;;;;5092745;27;20035;-86
2022/08/08 07:20:06;;;;;;;6.90;1.97;;;18.30;99.90;;;;;;5089913;27;20054;-86
2022/08/08 07:22:38;;;;;;;;;;;18.40;99.90;;;;;;5108946;27;20478;-86
2022/08/08 07:25:04;;;;;;;6.20;1.70;;;18.30;99.90;;;;;;5127354;27;19931;-86
2022/08/08 07:27:44;;;;;;;11.80;1.70;;;17.90;99.90;;;;;;5090879;27;20383;-85
2022/08/08 07:30:13;;;;;;;6.88;1.77;;;18.70;99.90;;;;;;5109190;27;20035;-86
2022/08/08 07:32:41;;;;;;;6.35;1.75;;;18.30;99.90;;;;;;5090648;27;20074;-86
2022/08/08 07:35:08;;;;;;;4.47;1.58;;;18.30;99.90;;;;;;5091497;27;20047;-85
2022/08/08 07:37:38;;;;;;;4.75;1.67;;;18.40;99.90;;;;;;5126156;27;20054;-86
2022/08/08 07:40:06;;;;;;;8.10;1.40;;;18.60;99.90;;;;;;5107422;27;20092;-86
2022/08/08 07:42:34;;;;;;;5.22;1.85;;;18.80;99.90;;;;;;5108747;27;20058;-86
2022/08/08 07:45:00;;;;;;;6.45;1.30;;;18.90;99.90;;;;;;5090306;27;20054;-86
2022/08/08 07:47:26;;;;;;;2.42;0.85;;;19.10;99.90;;;;;;5109324;27;20043;-86
2022/08/08 07:49:51;;;;;;;3.35;0.82;;;19.30;99.90;;;;;;5073599;27;20039;-85
2022/08/08 07:52:18;;;;;;;2.28;0.60;;;19.50;99.90;;;;;;5091117;28;20070;-86
2022/08/08 07:54:53;;;;;;;2.58;0.52;;;19.70;99.90;;;;;;5107747;27;20078;-86
2022/08/08 07:57:44;;;;;;;2.35;0.70;;;19.90;99.90;;;;;;5090070;27;20043;-87
2022/08/08 08:00:13;;;;;;;2.92;0.60;;;20.00;99.90;;;;;;5108386;27;20051;-86
2022/08/08 08:02:46;;;;;;;7.90;0.70;;;20.30;99.90;;;;;;5106760;27;20043;-86
2022/08/08 08:05:23;;;;;;;2.35;0.50;;;20.60;99.90;;;;;;5108412;27;20051;-86
2022/08/08 08:08:03;;;;;;;2.15;0.50;;;20.90;99.90;;;;;;5108374;27;20043;-86
2022/08/08 08:10:30;;;;;;;3.00;0.40;;;21.20;99.90;;;;;;5107155;27;20431;-86
2022/08/08 08:13:33;;;;;;;2.45;0.70;;;21.60;99.90;;;;;;5091951;28;20061;-86
2022/08/08 08:16:03;;;;;;;3.22;0.65;;;21.70;99.90;;;;;;5102352;28;20058;-86
2022/08/08 08:18:44;;;;;;;1.77;0.30;;;21.70;99.90;;;;;;5090834;28;20437;-86
2022/08/08 08:21:11;;;;;;;1.23;0.50;;;21.60;99.90;;;;;;5108695;28;20070;-86
2022/08/08 08:23:37;;;;;;;3.03;0.50;;;21.60;99.90;;;;;;5072951;28;20050;-86
2022/08/08 08:26:04;;;;;;;1.55;0.47;;;21.50;99.90;;;;;;5091427;28;20046;-86
2022/08/08 08:28:30;;;;;;;2.17;0.77;;;21.40;99.90;;;;;;5073172;28;20036;-85
2022/08/08 08:30:57;;;;;;;1.55;0.40;;;21.30;99.90;;;;;;5090920;28;20031;-85
2022/08/08 08:33:23;;;;;;;1.77;0.50;;;21.20;99.90;;;;;;5061226;27;20054;-87
2022/08/08 08:35:49;;;;;;;1.45;0.30;;;21.10;99.90;;;;;;5094225;27;20336;-86
2022/08/08 08:38:15;;;;;;;3.17;0.60;;;21.00;99.90;;;;;;5095293;27;20129;-86
2022/08/08 08:40:41;;;;;;;2.05;0.50;;;21.00;99.90;;;;;;5076984;27;20039;-86
2022/08/08 08:43:08;;;;;;;2.25;0.70;;;20.90;99.90;;;;;;5095194;27;20074;-86
2022/08/08 08:45:35;;;;;;;2.22;0.40;;;21.00;99.90;;;;;;5110567;27;20039;-86
2022/08/08 08:48:02;;;;;;;1.98;0.52;;;21.00;99.90;;;;;;5111855;27;20520;-85
2022/08/08 08:50:29;;;;;;;2.97;0.52;;;20.90;99.90;;;;;;5111025;27;20088;-87
2022/08/08 08:52:58;;;;;;;2.78;0.38;;;20.90;99.90;;;;;;5061212;27;20441;-90
2022/08/08 08:55:25;;;;;;;1.98;0.50;;;20.90;99.90;;;;;;5111961;27;20533;-87
2022/08/08 08:57:54;;;;;;;3.80;0.57;;;21.00;99.90;;;;;;5110539;27;20071;-87
2022/08/08 09:00:20;;;;;;;1.85;0.45;;;21.10;99.90;;;;;;5094482;27;20055;-87
2022/08/08 09:02:49;;;;;;;2.60;0.50;;;21.20;99.90;;;;;;5109942;27;20058;-87
2022/08/08 09:05:15;;;;;;;2.35;0.50;;;21.30;99.90;;;;;;5111609;27;20557;-87
2022/08/08 09:07:44;;;;;;;2.53;0.40;;;21.30;99.90;;;;;;5111763;27;20363;-87
2022/08/08 09:10:14;;;;;;;2.45;0.25;;;21.40;99.90;;;;;;5110324;27;20047;-86
2022/08/08 09:12:44;;;;;;;2.75;0.50;;;21.50;99.90;;;;;;5078652;27;20043;-87
2022/08/08 09:15:11;;;;;;;1.50;0.43;;;21.60;99.90;;;;;;5110288;27;20419;-87
2022/08/08 09:17:37;;;;;;;3.35;0.60;;;21.70;99.90;;;;;;5111756;27;20061;-87
2022/08/08 09:20:04;;;;;;;1.60;0.40;;;21.70;99.90;;;;;;5093116;27;20134;-87
2022/08/08 09:22:30;;;;;;;2.53;0.50;;;21.80;99.90;;;;;;5077396;27;20050;-87
2022/08/08 09:24:56;;;;;;;3.72;0.50;;;21.80;99.90;;;;;;5094510;27;20047;-87
2022/08/08 09:27:22;;;;;;;3.80;0.60;;;21.90;99.90;;;;;;5092974;27;20595;-87
2022/08/08 09:30:00;;;;;;;2.05;0.40;;;22.00;99.90;;;;;;5130000;27;20035;-87
2022/08/08 09:32:25;;;;;;;2.33;0.50;;;22.10;99.90;;;;;;5092758;27;20043;-87
2022/08/08 09:34:53;;;;;;;1.58;0.30;;;22.20;99.90;;;;;;5094531;27;20058;-86
2022/08/08 09:37:25;;;;;;;2.28;0.40;;;22.30;99.90;;;;;;5075715;27;20047;-87
2022/08/08 09:39:58;;;;;;;;;;;22.40;99.90;;;;;;5110654;27;20039;-87
2022/08/08 09:42:30;;;;;;;1.13;0.30;;;22.50;99.90;;;;;;5094033;27;20044;-86
2022/08/08 09:44:56;;;;;;;;;;;22.60;99.90;;;;;;5093226;27;20062;-87
2022/08/08 09:47:27;;;;;;;1.52;0.40;;;22.60;99.90;;;;;;5111525;27;20338;-87
2022/08/08 09:49:57;;;;;;;2.20;0.40;;;22.60;99.90;;;;;;5092742;27;20087;-87
2022/08/08 09:52:30;;;;;;;1.00;0.38;;;22.70;99.90;;;;;;5093629;27;20640;-87
2022/08/08 09:54:57;;;;;;;4.15;0.45;;;22.80;99.90;;;;;;5129562;27;20081;-87
2022/08/08 09:57:33;;;;;;;3.22;0.30;;;22.90;99.90;;;;;;5109644;27;20414;-87
2022/08/08 10:00:00;;;;;;;0.77;0.32;;;23.00;99.90;;;;;;5110924;27;20525;-88
2022/08/08 10:02:35;;;;;;;0.75;0.20;;;23.00;99.90;;;;;;5075207;27;20130;-88
2022/08/08 10:05:12;;;;;;;4.13;0.40;;;23.10;99.90;;;;;;5110636;27;20054;-87
2022/08/08 10:07:45;;;;;;;2.92;0.50;;;23.20;99.90;;;;;;5110355;27;20338;-87
2022/08/08 10:10:11;;;;;;;2.88;0.43;;;23.30;99.90;;;;;;5109320;27;20085;-88
2022/08/08 10:12:39;;;;;;;2.40;0.47;;;23.40;99.90;;;;;;5077280;27;20135;-87
2022/08/08 10:15:07;;;;;;;1.38;0.47;;;23.40;99.90;;;;;;5108832;27;20043;-87
2022/08/08 10:17:44;;;;;;;4.30;0.80;;;23.40;99.90;;;;;;5093641;27;20039;-87
2022/08/08 10:20:11;;;;;;;1.85;0.50;;;23.50;99.90;;;;;;5092157;27;20043;-87
2022/08/08 10:22:46;;;;;;;1.15;0.20;;;23.50;99.90;;;;;;5109807;27;20131;-87
2022/08/08 10:25:18;;;;;;;1.70;0.40;;;23.50;99.90;;;;;;5093102;27;20046;-87
2022/08/08 10:27:48;;;;;;;2.40;0.40;;;23.60;99.90;;;;;;5127366;27;20405;-87
2022/08/08 10:30:15;;;;;;;1.77;0.35;;;23.80;99.90;;;;;;5093469;27;20031;-87
2022/08/08 10:32:48;;;;;;;1.30;0.35;;;24.00;99.90;;;;;;5109261;27;20183;-87
2022/08/08 10:35:16;;;;;;;1.08;0.20;;;24.10;99.90;;;;;;5109782;27;20054;-88
2022/08/08 10:37:57;;;;;;;1.50;0.30;;;24.20;99.90;;;;;;5092534;27;20100;-87
2022/08/08 10:40:30;;;;;;;3.22;0.45;;;24.20;99.90;;;;;;5091446;27;20077;-87
2022/08/08 10:43:02;;;;;;;2.22;0.35;;;24.20;99.90;;;;;;5110187;27;20055;-87
2022/08/08 10:45:29;;;;;;;2.05;0.28;;;24.10;99.90;;;;;;5108946;27;20394;-87
2022/08/08 10:47:57;;;;;;;1.80;0.22;;;23.90;99.90;;;;;;5076278;27;20131;-87
2022/08/08 10:50:31;;;;;;;5.25;0.40;;;23.90;99.90;;;;;;5091765;27;20043;-87
2022/08/08 10:53:05;;;;;;;1.65;0.38;;;23.80;99.90;;;;;;5091406;27;20109;-87
2022/08/08 10:55:31;;;;;;;1.30;0.45;;;23.80;99.90;;;;;;5092888;27;20045;-87
2022/08/08 10:58:01;;;;;;;1.08;0.40;;;23.70;99.90;;;;;;5108114;27;20518;-87
2022/08/08 11:00:27;;;;;;;1.10;0.30;;;23.70;99.90;;;;;;5109406;27;20082;-87
2022/08/08 11:02:54;;;;;;;2.42;0.40;;;23.60;99.90;;;;;;5107898;27;20043;-87
2022/08/08 11:05:21;;;;;;;1.38;0.60;;;23.60;99.90;;;;;;5092460;27;20035;-87
2022/08/08 11:07:49;;;;;;;0.95;0.30;;;23.60;99.90;;;;;;5075283;27;20035;-87
2022/08/08 11:10:18;;;;;;;4.50;0.35;;;23.60;99.90;;;;;;5090857;27;20084;-87
2022/08/08 11:12:52;;;;;;;2.67;0.70;;;23.50;99.90;;;;;;5109464;27;20050;-87
2022/08/08 11:15:21;;;;;;;1.15;0.38;;;23.60;99.90;;;;;;5107700;27;20039;-87
2022/08/08 11:17:48;;;;;;;6.78;0.57;;;23.60;99.90;;;;;;5109186;27;20093;-87
2022/08/08 11:20:27;;;;;;;2.92;0.77;;;23.60;99.90;;;;;;5108357;27;20062;-87
2022/08/08 11:22:55;;;;;;;5.50;0.60;;;23.60;99.90;;;;;;5107999;27;20486;-86
2022/08/08 11:25:32;;;;;;;2.83;1.10;;;23.70;99.90;;;;;;5109666;27;20081;-87
2022/08/08 11:28:00;;;;;;;2.30;0.40;;;23.70;99.90;;;;;;5109054;27;20042;-87
2022/08/08 11:30:30;;;;;;;3.78;0.38;;;23.70;99.90;;;;;;5111339;27;20500;-87
2022/08/08 11:33:00;;;;;;;3.80;1.45;;;23.80;99.90;;;;;;5090931;27;20076;-87
2022/08/08 11:35:27;;;;;;;2.60;0.40;;;23.80;99.90;;;;;;5096587;27;20039;-90
2022/08/08 11:37:53;;;;;;;1.40;0.30;;;23.80;99.90;;;;;;5117366;27;20043;-88
2022/08/08 11:40:19;;;;;;;5.50;0.40;;;23.80;99.90;;;;;;5083057;27;20096;-88
2022/08/08 11:42:45;;;;;;;1.88;0.40;;;23.80;99.90;;;;;;5079947;27;20043;-87
2022/08/08 11:45:12;;;;;;;2.35;0.73;;;23.80;99.90;;;;;;5111542;27;20036;-87
2022/08/08 11:47:39;;;;;;;1.05;0.20;;;23.90;99.90;;;;;;5095326;27;20046;-87
2022/08/08 11:50:12;;;;;;;4.60;0.45;;;23.90;99.90;;;;;;5107659;27;20043;-88
2022/08/08 11:52:38;;;;;;;1.25;0.30;;;23.90;99.90;;;;;;5092331;27;20076;-87
2022/08/08 11:55:17;;;;;;;1.98;0.35;;;23.90;99.90;;;;;;5094629;27;20047;-87
2022/08/08 11:57:43;;;;;;;4.57;0.43;;;23.90;99.90;;;;;;5108577;27;20528;-88
2022/08/08 12:00:16;;;;;;;2.88;0.40;;;23.80;99.90;;;;;;5091643;27;20063;-88
2022/08/08 12:02:59;;;;;;;2.97;0.38;;;23.80;99.90;;;;;;5107175;27;20054;-87
2022/08/08 12:05:37;;;;;;;2.30;0.30;;;23.70;99.90;;;;;;5107720;28;20116;-88
2022/08/08 12:08:03;;;;;;;0.95;0.35;;;23.70;99.90;;;;;;5126606;27;20054;-88
2022/08/08 12:10:29;;;;;;;5.18;0.82;;;23.70;99.90;;;;;;5090351;28;20050;-88
2022/08/08 12:13:09;;;;;;;3.50;0.38;;;23.60;99.90;;;;;;5108421;28;20535;-87
2022/08/08 12:15:37;;;;;;;2.65;0.47;;;23.60;99.90;;;;;;5106716;28;20054;-88
2022/08/08 12:18:17;;;;;;;1.77;0.32;;;23.60;99.90;;;;;;5107733;28;20035;-87
2022/08/08 12:20:42;;;;;;;0.55;0.20;;;23.70;99.90;;;;;;5126722;28;20081;-87
2022/08/08 12:23:09;;;;;;;1.35;0.38;;;23.90;99.90;;;;;;5090209;28;20047;-87
2022/08/08 12:25:34;;;;;;;0.35;0.17;;;24.20;99.90;;;;;;5092266;28;20043;-87
2022/08/08 12:28:27;;;;;;;1.25;0.30;;;24.40;99.90;;;;;;5072543;28;20050;-88
2022/08/08 12:31:03;;;;;;;1.02;0.28;;;24.80;99.90;;;;;;5088128;28;20100;-87
2022/08/08 12:33:29;;;;;;;1.40;0.40;;;25.10;99.90;;;;;;5108479;28;20039;-85
2022/08/08 12:35:55;;;;;;;1.02;0.43;;;25.10;99.90;;;;;;5106609;28;20086;-87
2022/08/08 12:38:20;;;;;;;1.67;0.50;;;24.80;99.50;;;;;;5091732;28;20079;-88
2022/08/08 12:40:51;;;;;;;0.68;0.30;;;24.60;99.30;;;;;;5089675;28;20489;-86
2022/08/08 12:43:31;;;;;;;0.93;0.40;;;24.40;99.70;;;;;;5108449;28;20054;-87
2022/08/08 12:45:57;;;;;;;2.45;0.30;;;24.30;99.30;;;;;;5090712;28;20079;-87
2022/08/08 12:48:24;;;;;;;1.15;0.38;;;24.20;99.90;;;;;;5106876;28;20098;-87
2022/08/08 12:50:55;;;;;;;1.90;0.43;;;24.00;99.70;;;;;;5091257;28;20047;-88
2022/08/08 12:53:29;;;;;;;1.25;0.30;;;23.80;99.90;;;;;;5089973;28;20557;-88
2022/08/08 12:55:57;;;;;;;2.00;0.40;;;23.60;99.90;;;;;;5108961;28;20104;-87
2022/08/08 12:58:24;;;;;;;2.83;0.50;;;23.40;99.90;;;;;;5090112;28;20095;-87
2022/08/08 13:00:50;;;;;;;1.77;0.50;;;23.30;99.90;;;;;;5090602;28;20363;-87
2022/08/08 13:03:24;;;;;;;1.88;0.38;;;23.20;99.90;;;;;;5107514;28;20043;-87
2022/08/08 13:06:01;;;;;;;1.35;0.40;;;23.10;99.90;;;;;;5072772;28;20082;-88
2022/08/08 13:08:41;;;;;;;1.13;0.40;;;23.10;99.90;;;;;;5091363;28;20047;-88
2022/08/08 13:11:31;;;;;;;2.00;0.22;;;23.30;99.90;;;;;;5125090;28;20078;-87
2022/08/08 13:14:15;;;;;;;1.75;0.40;;;23.70;99.90;;;;;;5107229;28;20043;-87
2022/08/08 13:16:41;;;;;;;0.60;0.30;;;24.20;99.90;;;;;;5090820;28;20078;-88
2022/08/08 13:19:09;;;;;;;2.13;0.43;;;24.70;99.90;;;;;;5090607;27;20156;-88
2022/08/08 13:21:42;;;;;;;1.92;0.30;;;25.20;99.90;;;;;;5094379;27;20089;-88
2022/08/08 13:24:08;;;;;;;0.93;0.30;;;25.60;99.50;;;;;;5093527;27;20468;-88
2022/08/08 13:26:34;;;;;;;2.53;0.30;;;26.00;98.60;;;;;;5111411;27;20451;-89